Time;durP1;ratioP1;P1;durP2;ratioP2;P2;SDS_P1;SDS_P2;PMS_P1;PMS_P2;Temp;Humidity;BMP_temperature;BMP_pressure;BME280_temperature;BME280_humidity;BME280_pressure;Samples;Min_cycle;Max_cycle;Signal;HPM_P1;HPM_P2
2023/10/11 00:00:56;;;;;;;15.80;9.43;;;14.40;99.90;;;;;;4977392;28;20034;-41
2023/10/11 00:05:53;;;;;;;16.17;9.27;;;14.50;99.90;;;;;;4978148;28;20138;-40
2023/10/11 00:08:29;;;;;;;19.73;8.88;;;14.50;99.90;;;;;;4979748;28;20046;-41
2023/10/11 00:10:59;;;;;;;15.80;9.27;;;14.50;99.90;;;;;;4975563;28;20078;-41
2023/10/11 00:13:32;;;;;;;18.67;10.13;;;14.50;99.90;;;;;;4975521;28;20108;-38
2023/10/11 00:16:07;;;;;;;15.68;8.82;;;14.50;99.90;;;;;;4976709;28;20050;-41
2023/10/11 00:18:42;;;;;;;13.43;8.50;;;14.40;99.90;;;;;;4978960;28;20070;-40
2023/10/11 00:21:15;;;;;;;19.05;9.20;;;14.40;99.90;;;;;;4977994;28;20581;-41
2023/10/11 00:23:51;;;;;;;20.80;10.82;;;14.30;99.90;;;;;;4975745;28;20046;-41
2023/10/11 00:26:19;;;;;;;18.70;10.05;;;14.30;99.90;;;;;;4979106;28;20057;-41
2023/10/11 00:28:54;;;;;;;19.17;9.55;;;14.20;99.90;;;;;;4976347;28;20047;-41
2023/10/11 00:31:21;;;;;;;18.67;9.95;;;14.20;99.90;;;;;;4985212;28;20476;-40
2023/10/11 00:33:48;;;;;;;19.83;9.30;;;14.10;99.90;;;;;;4964387;28;20050;-39
2023/10/11 00:36:21;;;;;;;23.67;9.68;;;14.10;99.90;;;;;;4975958;28;20074;-40
2023/10/11 00:38:50;;;;;;;20.15;9.38;;;14.10;99.90;;;;;;4976200;28;20055;-38
2023/10/11 00:41:18;;;;;;;15.75;9.77;;;14.00;99.90;;;;;;4979169;28;20101;-42
2023/10/11 00:43:52;;;;;;;16.77;9.02;;;13.90;99.90;;;;;;4981020;28;20047;-40
2023/10/11 00:46:26;;;;;;;16.60;8.75;;;13.80;99.90;;;;;;4975092;28;20125;-40
2023/10/11 00:48:55;;;;;;;18.50;8.80;;;13.80;99.90;;;;;;4971053;28;20103;-40
2023/10/11 00:51:30;;;;;;;17.08;9.30;;;13.70;99.90;;;;;;4958231;28;20511;-41
2023/10/11 00:54:00;;;;;;;16.40;9.13;;;13.70;99.90;;;;;;4979960;28;20468;-40
2023/10/11 00:56:31;;;;;;;16.45;9.05;;;13.70;99.90;;;;;;4974510;28;20062;-40
2023/10/11 00:59:01;;;;;;;15.23;8.27;;;13.60;99.90;;;;;;4973270;28;20496;-40
2023/10/11 01:01:28;;;;;;;19.45;8.90;;;13.60;99.90;;;;;;4976413;28;20051;-40
2023/10/11 01:03:56;;;;;;;18.08;9.45;;;13.60;99.90;;;;;;4971696;28;20070;-39
2023/10/11 01:06:25;;;;;;;19.80;8.60;;;13.60;99.90;;;;;;4974564;28;20142;-39
2023/10/11 01:08:53;;;;;;;16.58;8.48;;;13.60;99.90;;;;;;4961629;28;20423;-40
2023/10/11 01:11:21;;;;;;;17.00;9.20;;;13.60;99.90;;;;;;4974900;28;20156;-40
2023/10/11 01:13:52;;;;;;;19.15;8.82;;;13.60;99.90;;;;;;4974172;28;20098;-41
2023/10/11 01:16:26;;;;;;;15.32;8.43;;;13.50;99.90;;;;;;4972948;28;20145;-40
2023/10/11 01:18:53;;;;;;;18.17;9.63;;;13.50;99.90;;;;;;4972683;28;20137;-41
2023/10/11 01:21:21;;;;;;;25.42;9.68;;;13.50;99.90;;;;;;4976484;28;20090;-41
2023/10/11 01:23:48;;;;;;;14.25;8.38;;;13.40;99.90;;;;;;4972109;28;20137;-40
2023/10/11 01:26:17;;;;;;;15.45;8.30;;;13.50;99.90;;;;;;4975782;28;20207;-41
2023/10/11 01:28:51;;;;;;;15.52;8.07;;;13.50;99.90;;;;;;4971940;28;20051;-41
2023/10/11 01:31:18;;;;;;;13.73;8.25;;;13.40;99.90;;;;;;4976882;28;20427;-40
2023/10/11 01:33:49;;;;;;;14.80;8.32;;;13.50;99.90;;;;;;4974599;28;20055;-41
2023/10/11 01:36:23;;;;;;;19.15;9.02;;;13.50;99.90;;;;;;4963337;28;20078;-40
2023/10/11 01:38:50;;;;;;;19.98;8.43;;;13.40;99.90;;;;;;4962478;28;20042;-39
2023/10/11 01:41:27;;;;;;;16.33;8.77;;;13.50;99.90;;;;;;4976522;28;20051;-40
2023/10/11 01:43:56;;;;;;;16.25;9.07;;;13.50;99.90;;;;;;4970450;28;20096;-40
2023/10/11 01:46:32;;;;;;;24.77;8.88;;;13.50;99.90;;;;;;4972095;28;20051;-41
2023/10/11 01:49:05;;;;;;;17.83;8.45;;;13.50;99.90;;;;;;4983633;28;20050;-42
2023/10/11 01:51:38;;;;;;;18.50;8.57;;;13.50;99.90;;;;;;4970450;28;20178;-39
2023/10/11 01:54:11;;;;;;;16.20;8.63;;;13.50;99.90;;;;;;4974404;28;20062;-40
2023/10/11 01:56:39;;;;;;;18.75;8.73;;;13.50;99.90;;;;;;4986224;28;20090;-41
2023/10/11 01:59:07;;;;;;;18.80;8.75;;;13.60;99.90;;;;;;4989703;28;20055;-41
2023/10/11 02:01:41;;;;;;;18.00;8.60;;;13.50;99.90;;;;;;4983095;28;20053;-41
2023/10/11 02:04:17;;;;;;;19.83;9.82;;;13.50;99.90;;;;;;4977157;28;20093;-40
2023/10/11 02:06:49;;;;;;;20.70;10.50;;;13.50;99.90;;;;;;4972881;28;20509;-40
2023/10/11 02:09:21;;;;;;;18.40;9.70;;;13.50;99.90;;;;;;4975714;28;20450;-39
2023/10/11 02:11:54;;;;;;;18.88;8.93;;;13.60;99.90;;;;;;4975149;28;20061;-40
2023/10/11 02:14:23;;;;;;;18.17;8.68;;;13.60;99.90;;;;;;4976010;28;20042;-40
2023/10/11 02:16:54;;;;;;;15.60;8.48;;;13.60;99.90;;;;;;4969123;28;20051;-40
2023/10/11 02:19:24;;;;;;;16.88;9.00;;;13.60;99.90;;;;;;4986254;28;20226;-40
2023/10/11 02:21:55;;;;;;;21.40;8.90;;;13.70;99.90;;;;;;4990368;28;20111;-40
2023/10/11 02:24:25;;;;;;;22.08;9.55;;;13.70;99.90;;;;;;4989674;28;20522;-41
2023/10/11 02:26:54;;;;;;;20.02;9.48;;;13.70;99.90;;;;;;4975403;28;20468;-39
2023/10/11 02:29:25;;;;;;;19.90;8.82;;;13.70;99.90;;;;;;4992266;28;20058;-40
2023/10/11 02:31:55;;;;;;;20.88;9.13;;;13.80;99.90;;;;;;4989713;28;20420;-40
2023/10/11 02:34:23;;;;;;;17.25;9.13;;;13.80;99.90;;;;;;4992947;28;20074;-40
2023/10/11 02:37:11;;;;;;;19.95;8.23;;;13.80;99.90;;;;;;4970830;28;20078;-41
2023/10/11 02:39:44;;;;;;;20.95;9.15;;;13.90;99.90;;;;;;4974824;28;20055;-40
2023/10/11 02:42:19;;;;;;;18.95;8.68;;;13.90;99.90;;;;;;4977801;28;20061;-39
2023/10/11 02:44:48;;;;;;;20.95;8.95;;;13.90;99.90;;;;;;4958856;28;20045;-40
2023/10/11 02:47:22;;;;;;;18.83;8.85;;;13.90;99.90;;;;;;4975443;28;20134;-39
2023/10/11 02:49:53;;;;;;;14.52;8.52;;;13.90;99.90;;;;;;4973108;28;20118;-39
2023/10/11 02:52:29;;;;;;;21.58;8.60;;;13.90;99.90;;;;;;4980286;28;20586;-39
2023/10/11 02:54:59;;;;;;;15.30;8.48;;;13.80;99.90;;;;;;4967937;28;20050;-40
2023/10/11 02:57:27;;;;;;;19.80;8.15;;;13.90;99.90;;;;;;4974079;28;20125;-39
2023/10/11 02:59:56;;;;;;;18.15;8.02;;;13.80;99.90;;;;;;4966849;28;20058;-40
2023/10/11 03:02:29;;;;;;;18.80;8.35;;;13.70;99.90;;;;;;4958355;28;20043;-40
2023/10/11 03:05:01;;;;;;;17.35;9.18;;;13.70;99.90;;;;;;4975013;28;20054;-39
2023/10/11 03:07:33;;;;;;;19.75;8.48;;;13.60;99.90;;;;;;4956010;28;20141;-40
2023/10/11 03:10:03;;;;;;;17.42;8.25;;;13.60;99.90;;;;;;4972087;28;20526;-39
2023/10/11 03:12:31;;;;;;;20.42;8.82;;;13.60;99.90;;;;;;4958830;28;21448;-37
2023/10/11 03:15:09;;;;;;;18.90;9.60;;;13.60;99.90;;;;;;4959328;28;20051;-39
2023/10/11 03:17:43;;;;;;;15.13;8.02;;;13.60;99.90;;;;;;4971196;28;20039;-39
2023/10/11 03:20:29;;;;;;;18.15;7.95;;;13.50;99.90;;;;;;4974106;28;20039;-38
2023/10/11 03:22:59;;;;;;;20.00;8.63;;;13.50;99.90;;;;;;4967514;28;20113;-38
2023/10/11 03:25:32;;;;;;;17.92;8.35;;;13.50;99.90;;;;;;4973255;28;20046;-39
2023/10/11 03:27:59;;;;;;;21.40;8.23;;;13.50;99.90;;;;;;4969697;28;20059;-39
2023/10/11 03:30:27;;;;;;;21.58;8.48;;;13.40;99.90;;;;;;4958096;28;20518;-40
2023/10/11 03:32:55;;;;;;;15.80;8.40;;;13.40;99.90;;;;;;4969307;28;20071;-40
2023/10/11 03:35:25;;;;;;;19.85;8.10;;;13.40;99.90;;;;;;4970795;28;20042;-37
2023/10/11 03:38:00;;;;;;;15.93;8.10;;;13.40;99.90;;;;;;4971621;28;20046;-39
2023/10/11 03:43:18;;;;;;;16.00;8.70;;;13.40;99.90;;;;;;4939902;28;20046;-40
2023/10/11 03:45:56;;;;;;;23.90;8.10;;;13.40;99.90;;;;;;4974572;28;20137;-40
2023/10/11 03:48:28;;;;;;;22.20;8.27;;;13.40;99.90;;;;;;4976286;28;20435;-39
2023/10/11 03:50:56;;;;;;;18.25;8.52;;;13.30;99.90;;;;;;4970043;28;20531;-40
2023/10/11 03:53:24;;;;;;;19.77;9.45;;;13.40;99.90;;;;;;4966414;28;20432;-41
2023/10/11 03:55:53;;;;;;;22.90;9.20;;;13.30;99.90;;;;;;4973300;28;20066;-39
2023/10/11 03:58:32;;;;;;;15.68;8.05;;;13.30;99.90;;;;;;4976968;28;20076;-39
2023/10/11 04:01:14;;;;;;;19.77;8.98;;;13.30;99.90;;;;;;4974253;28;20054;-39
2023/10/11 04:03:42;;;;;;;20.10;8.43;;;13.40;99.90;;;;;;4968756;28;20049;-39
2023/10/11 04:06:13;;;;;;;23.52;9.55;;;13.40;99.90;;;;;;4989432;28;20077;-42
2023/10/11 04:08:43;;;;;;;;;;;13.40;99.90;;;;;;4983164;28;20162;-41
2023/10/11 04:11:16;;;;;;;14.32;7.65;;;13.40;99.90;;;;;;4992483;28;19932;-38
2023/10/11 04:13:46;;;;;;;17.63;8.30;;;13.40;99.90;;;;;;4978099;28;20057;-40
2023/10/11 04:16:17;;;;;;;18.30;8.82;;;13.40;99.90;;;;;;4975571;28;20042;-37
2023/10/11 04:18:45;;;;;;;17.60;8.55;;;13.40;99.90;;;;;;4972758;28;20076;-40
2023/10/11 04:21:25;;;;;;;19.13;9.40;;;13.40;99.90;;;;;;4976577;28;20452;-40
2023/10/11 04:23:56;;;;;;;16.88;9.82;;;13.40;99.90;;;;;;4974277;28;20123;-39
2023/10/11 04:26:33;;;;;;;18.35;8.80;;;13.40;99.90;;;;;;4976921;28;20058;-40
2023/10/11 04:29:07;;;;;;;19.83;8.93;;;13.40;99.90;;;;;;4985636;28;21920;-42
2023/10/11 04:31:54;;;;;;;22.63;9.25;;;13.40;99.90;;;;;;4987051;28;20233;-40
2023/10/11 04:34:31;;;;;;;19.30;8.93;;;13.40;99.90;;;;;;4975495;28;20124;-40
2023/10/11 04:37:04;;;;;;;16.67;8.55;;;13.40;99.90;;;;;;4970420;28;20047;-39
2023/10/11 04:39:34;;;;;;;27.40;9.27;;;13.40;99.90;;;;;;4976698;28;20657;-38
2023/10/11 04:42:03;;;;;;;16.67;7.90;;;13.40;99.90;;;;;;4972638;28;20058;-40
2023/10/11 04:44:35;;;;;;;16.08;8.98;;;13.30;99.90;;;;;;4969075;28;20043;-38
2023/10/11 04:47:02;;;;;;;;;;;13.30;99.90;;;;;;4972017;28;20054;-39
2023/10/11 04:49:30;;;;;;;16.42;7.90;;;13.20;99.90;;;;;;4976734;28;19968;-39
2023/10/11 04:51:59;;;;;;;18.17;8.57;;;13.20;99.90;;;;;;4971328;28;20073;-40
2023/10/11 04:54:54;;;;;;;18.00;8.95;;;13.20;99.90;;;;;;4973485;28;20054;-39
2023/10/11 04:57:17;;;;;;;20.88;9.88;;;13.10;99.90;;;;;;4974582;28;20051;-39
2023/10/11 04:59:46;;;;;;;19.20;9.20;;;13.10;99.90;;;;;;4969720;28;20405;-39
2023/10/11 05:02:32;;;;;;;17.52;9.23;;;13.10;99.90;;;;;;4973420;28;20061;-40
2023/10/11 05:05:00;;;;;;;19.98;9.43;;;13.00;99.90;;;;;;4975568;28;20050;-38
2023/10/11 05:07:28;;;;;;;17.73;8.27;;;13.10;99.90;;;;;;4975176;28;20076;-40
2023/10/11 05:10:29;;;;;;;18.05;8.85;;;13.10;99.90;;;;;;4970280;28;20443;-39
2023/10/11 05:12:58;;;;;;;25.40;8.90;;;13.10;99.90;;;;;;4973924;28;20239;-39
2023/10/11 05:15:40;;;;;;;17.67;8.23;;;13.10;99.90;;;;;;4971600;28;20133;-40
2023/10/11 05:18:07;;;;;;;18.40;8.90;;;13.00;99.90;;;;;;4973500;28;20050;-39
2023/10/11 05:23:11;;;;;;;16.88;8.38;;;13.10;99.90;;;;;;4974061;28;20051;-39
2023/10/11 05:25:45;;;;;;;22.33;9.87;;;13.10;99.90;;;;;;4974014;28;20049;-40
2023/10/11 05:31:22;;;;;;;21.20;8.73;;;13.10;99.90;;;;;;4975574;28;20129;-39
2023/10/11 05:50:50;;;;;;;18.33;8.93;;;13.30;99.90;;;;;;4973118;28;20448;-40
2023/10/11 05:52:56;;;;;;;21.23;10.27;;;13.40;99.90;;;;;;4969483;28;20055;-40
2023/10/11 05:55:23;;;;;;;21.83;9.55;;;13.40;99.90;;;;;;4970973;28;20497;-40
2023/10/11 05:57:51;;;;;;;24.30;10.50;;;13.50;99.90;;;;;;4969453;28;20558;-41
2023/10/11 06:00:23;;;;;;;20.83;9.77;;;13.50;99.90;;;;;;4975172;28;20047;-39
2023/10/11 06:02:52;;;;;;;20.50;9.57;;;13.50;99.90;;;;;;4982143;28;20051;-40
2023/10/11 06:05:23;;;;;;;19.42;10.50;;;13.60;99.90;;;;;;4981857;28;20055;-41
2023/10/11 06:08:01;;;;;;;21.55;9.20;;;13.70;99.90;;;;;;4975394;28;20795;-39
2023/10/11 06:10:35;;;;;;;23.05;8.90;;;13.80;99.90;;;;;;4973520;28;20475;-39
2023/10/11 06:13:07;;;;;;;25.70;13.70;;;13.90;99.90;;;;;;4973017;28;20484;-40
2023/10/11 06:15:35;;;;;;;22.25;10.75;;;14.00;99.90;;;;;;4974454;28;20046;-40
2023/10/11 06:18:05;;;;;;;16.02;9.25;;;14.00;99.90;;;;;;4956494;28;20047;-39
2023/10/11 06:20:38;;;;;;;22.75;9.55;;;14.10;99.90;;;;;;4954626;28;20043;-38
2023/10/11 06:23:06;;;;;;;18.55;8.80;;;14.20;99.90;;;;;;4970399;28;20070;-35
2023/10/11 06:25:51;;;;;;;18.13;8.57;;;14.30;99.90;;;;;;4972103;28;20407;-41
2023/10/11 06:28:19;;;;;;;18.20;9.27;;;14.30;99.90;;;;;;4972799;28;20076;-39
2023/10/11 06:30:46;;;;;;;20.38;9.38;;;14.30;99.90;;;;;;4973793;28;20055;-39
2023/10/11 06:33:14;;;;;;;22.70;10.75;;;14.30;99.90;;;;;;4977141;28;20074;-40
2023/10/11 06:35:45;;;;;;;16.92;9.57;;;14.30;99.90;;;;;;4972212;28;20051;-38
2023/10/11 06:38:12;;;;;;;20.98;9.25;;;14.30;99.90;;;;;;4973208;28;20058;-39
2023/10/11 06:40:46;;;;;;;15.80;8.15;;;14.30;99.90;;;;;;4971198;28;20058;-39
2023/10/11 06:43:15;;;;;;;24.73;10.13;;;14.40;99.90;;;;;;4972898;28;20138;-40
2023/10/11 06:45:42;;;;;;;25.70;13.43;;;14.40;99.90;;;;;;4970156;28;20047;-39
2023/10/11 06:48:13;;;;;;;22.15;11.00;;;14.50;99.90;;;;;;4973963;28;20153;-40
2023/10/11 06:50:41;;;;;;;21.10;10.45;;;14.50;99.90;;;;;;4971008;28;20098;-48
2023/10/11 06:53:10;;;;;;;23.67;10.23;;;14.60;99.90;;;;;;4972325;28;20153;-39
2023/10/11 06:55:47;;;;;;;21.75;10.40;;;14.60;99.90;;;;;;4973685;28;20050;-40
2023/10/11 06:58:19;;;;;;;27.25;11.98;;;14.70;99.90;;;;;;4975262;28;20042;-39
2023/10/11 07:00:47;;;;;;;21.73;10.18;;;14.70;99.90;;;;;;4970269;28;20153;-40
2023/10/11 07:05:59;;;;;;;23.92;13.18;;;14.70;99.90;;;;;;4973405;28;20061;-40
2023/10/11 07:08:36;;;;;;;21.38;11.02;;;14.70;99.90;;;;;;4973480;28;20042;-39
2023/10/11 07:13:54;;;;;;;21.38;9.55;;;14.80;99.90;;;;;;4972041;28;20087;-40
2023/10/11 07:16:23;;;;;;;19.08;9.30;;;14.80;99.90;;;;;;4976430;28;20097;-38
2023/10/11 07:18:54;;;;;;;21.60;10.00;;;14.90;99.90;;;;;;4980159;28;20061;-41
2023/10/11 07:21:26;;;;;;;20.75;9.13;;;14.90;99.90;;;;;;4991372;28;20046;-41
2023/10/11 07:26:23;;;;;;;22.65;10.05;;;15.10;99.90;;;;;;4975161;28;20050;-40
2023/10/11 07:28:52;;;;;;;24.38;10.35;;;15.10;99.90;;;;;;4973478;28;20082;-40
2023/10/11 07:31:21;;;;;;;23.88;10.85;;;15.20;99.90;;;;;;4975999;28;20061;-40
2023/10/11 07:33:55;;;;;;;28.08;11.38;;;15.30;99.90;;;;;;4977239;28;20053;-40
2023/10/11 07:36:23;;;;;;;17.15;10.27;;;15.40;99.90;;;;;;4981154;28;20069;-39
2023/10/11 07:38:54;;;;;;;21.73;9.15;;;15.50;99.90;;;;;;4983277;28;20046;-40
2023/10/11 07:41:24;;;;;;;15.77;8.75;;;15.50;99.90;;;;;;4980859;28;20046;-38
2023/10/11 07:43:52;;;;;;;18.10;8.88;;;15.60;99.90;;;;;;4976426;28;20069;-41
2023/10/11 07:46:19;;;;;;;25.00;9.88;;;15.70;99.90;;;;;;4974653;28;20554;-40
2023/10/11 07:48:48;;;;;;;22.20;9.40;;;15.90;99.90;;;;;;4973690;28;20070;-40
2023/10/11 07:51:15;;;;;;;16.77;9.10;;;16.00;99.90;;;;;;4975556;28;20125;-39
2023/10/11 07:53:43;;;;;;;18.55;9.32;;;16.10;99.90;;;;;;4969348;28;20130;-39
2023/10/11 07:56:15;;;;;;;15.80;8.75;;;16.20;99.90;;;;;;4974906;28;20471;-40
2023/10/11 07:58:46;;;;;;;15.63;8.75;;;16.30;99.90;;;;;;4975073;28;20058;-40
2023/10/11 08:04:01;;;;;;;20.50;9.77;;;16.60;99.90;;;;;;4974203;28;20059;-39
2023/10/11 08:06:28;;;;;;;20.92;9.68;;;16.70;99.90;;;;;;4980052;28;20073;-40
2023/10/11 08:09:01;;;;;;;19.02;10.05;;;16.80;99.90;;;;;;4992621;28;20051;-40
2023/10/11 08:12:15;;;;;;;18.83;10.63;;;16.90;99.90;;;;;;4994056;28;20081;-40
2023/10/11 08:14:21;;;;;;;19.92;10.45;;;17.10;99.90;;;;;;4969380;28;20137;-37
2023/10/11 08:16:49;;;;;;;;;;;17.20;99.90;;;;;;4977416;28;20061;-40
2023/10/11 08:19:17;;;;;;;23.70;9.38;;;17.30;99.90;;;;;;4976497;28;19929;-37
2023/10/11 08:21:54;;;;;;;19.58;8.85;;;17.40;99.90;;;;;;4980355;28;20122;-37
2023/10/11 08:24:27;;;;;;;22.98;9.82;;;17.40;99.90;;;;;;4975708;28;20047;-39
2023/10/11 08:27:06;;;;;;;20.45;10.02;;;17.60;99.90;;;;;;4970719;28;20149;-41
2023/10/11 08:29:35;;;;;;;19.98;9.65;;;17.80;99.90;;;;;;4974217;28;20124;-39
2023/10/11 08:32:15;;;;;;;21.02;9.48;;;17.90;99.90;;;;;;4974839;28;20049;-39
2023/10/11 08:34:46;;;;;;;21.75;8.68;;;18.00;99.90;;;;;;4973347;28;20436;-39
2023/10/11 08:37:14;;;;;;;17.77;9.25;;;18.10;99.90;;;;;;4975875;28;20100;-42
2023/10/11 08:39:44;;;;;;;18.63;9.43;;;18.10;99.90;;;;;;4974481;28;20117;-41
2023/10/11 08:42:14;;;;;;;16.05;10.10;;;18.20;99.90;;;;;;4977017;28;20061;-40
2023/10/11 08:44:45;;;;;;;18.52;9.75;;;18.40;99.90;;;;;;4973714;28;20042;-39
2023/10/11 08:47:14;;;;;;;19.75;9.95;;;18.50;99.90;;;;;;4978272;28;20131;-39
2023/10/11 08:49:42;;;;;;;15.85;10.02;;;18.60;99.90;;;;;;4962213;28;20088;-40
2023/10/11 08:52:10;;;;;;;14.63;9.30;;;18.70;99.90;;;;;;4977857;28;20147;-38
2023/10/11 08:54:40;;;;;;;23.85;10.57;;;18.90;99.90;;;;;;4971452;28;20387;-39
2023/10/11 08:57:12;;;;;;;21.42;11.80;;;19.00;99.90;;;;;;4973726;28;20290;-40
2023/10/11 08:59:50;;;;;;;17.90;9.00;;;19.10;99.90;;;;;;4972001;28;20062;-40
2023/10/11 09:02:18;;;;;;;18.23;9.00;;;19.30;99.90;;;;;;4977755;28;20132;-40
2023/10/11 09:04:59;;;;;;;17.40;9.13;;;19.50;99.90;;;;;;4973519;28;20057;-40
2023/10/11 09:07:45;;;;;;;21.23;9.02;;;19.60;99.90;;;;;;4973993;28;20126;-40
2023/10/11 09:10:29;;;;;;;30.10;10.30;;;19.70;99.90;;;;;;4971633;28;20046;-41
2023/10/11 09:12:58;;;;;;;23.75;11.40;;;19.90;99.90;;;;;;4975383;28;20141;-41
2023/10/11 09:15:45;;;;;;;21.77;11.25;;;20.00;99.90;;;;;;4975996;28;20149;-39
2023/10/11 09:18:14;;;;;;;19.15;9.55;;;20.10;99.90;;;;;;4976993;28;20042;-40
2023/10/11 09:21:09;;;;;;;18.08;9.73;;;20.20;99.90;;;;;;4976514;28;20416;-39
2023/10/11 09:23:46;;;;;;;18.98;8.32;;;20.30;99.90;;;;;;4975894;28;20169;-40
2023/10/11 09:26:21;;;;;;;21.27;9.23;;;20.60;99.90;;;;;;4977519;28;20407;-40
2023/10/11 09:28:56;;;;;;;16.45;9.32;;;20.70;99.90;;;;;;4975159;28;20432;-40
2023/10/11 09:31:25;;;;;;;17.38;9.32;;;20.70;99.90;;;;;;4977051;28;20109;-41
2023/10/11 09:34:18;;;;;;;17.90;9.50;;;21.00;99.90;;;;;;4975903;28;20046;-41
2023/10/11 09:36:43;;;;;;;16.92;8.30;;;21.10;99.90;;;;;;4976725;28;20057;-41
2023/10/11 09:39:16;;;;;;;17.80;9.90;;;21.20;99.90;;;;;;4977882;28;20043;-40
2023/10/11 09:41:52;;;;;;;19.77;10.32;;;21.40;99.90;;;;;;4974284;28;20113;-40
2023/10/11 09:44:28;;;;;;;22.13;10.18;;;21.60;99.90;;;;;;4979482;28;20043;-41
2023/10/11 09:47:00;;;;;;;23.15;10.02;;;21.80;99.90;;;;;;4969133;28;20046;-40
2023/10/11 09:49:31;;;;;;;17.35;9.38;;;21.80;99.90;;;;;;4974061;28;20090;-42
2023/10/11 09:52:07;;;;;;;21.70;9.93;;;21.90;99.90;;;;;;4966884;28;20042;-39
2023/10/11 09:54:37;;;;;;;24.20;10.43;;;22.00;99.90;;;;;;4975998;28;20384;-40
2023/10/11 09:57:15;;;;;;;18.67;9.73;;;22.30;99.90;;;;;;4979630;28;20503;-40
2023/10/11 09:59:46;;;;;;;20.73;9.55;;;22.50;99.90;;;;;;4974987;28;20035;-41
2023/10/11 10:02:21;;;;;;;19.53;9.70;;;22.60;99.90;;;;;;4981689;28;20051;-41
2023/10/11 10:04:51;;;;;;;19.27;9.23;;;22.80;99.90;;;;;;4983593;28;20051;-40
2023/10/11 10:07:28;;;;;;;21.98;9.77;;;23.00;99.90;;;;;;4989683;28;20098;-42
2023/10/11 10:10:00;;;;;;;16.48;8.70;;;23.30;99.90;;;;;;4984433;28;20188;-42
2023/10/11 10:12:33;;;;;;;18.63;9.52;;;23.60;99.90;;;;;;4984897;28;20057;-41
2023/10/11 10:15:07;;;;;;;14.83;8.83;;;23.80;99.90;;;;;;4972015;28;20043;-41
2023/10/11 10:17:37;;;;;;;20.33;9.10;;;24.00;99.90;;;;;;4975490;28;20308;-42
2023/10/11 10:20:43;;;;;;;13.20;8.57;;;24.20;99.90;;;;;;4985899;28;20046;-43
2023/10/11 10:23:16;;;;;;;18.27;9.07;;;24.40;99.90;;;;;;4973602;28;20057;-40
2023/10/11 10:26:03;;;;;;;17.43;8.70;;;24.60;99.90;;;;;;4975779;28;20117;-41
2023/10/11 10:28:36;;;;;;;12.85;8.18;;;24.50;99.90;;;;;;4974622;28;20054;-39
2023/10/11 10:31:10;;;;;;;14.95;8.40;;;24.80;99.90;;;;;;4975091;28;20047;-42
2023/10/11 10:33:41;;;;;;;17.50;8.73;;;25.10;99.90;;;;;;4974336;28;20086;-40
2023/10/11 10:36:18;;;;;;;14.80;8.55;;;25.40;99.90;;;;;;4975725;28;20129;-41
2023/10/11 10:39:00;;;;;;;19.45;8.60;;;25.60;99.90;;;;;;4975688;28;20047;-41
2023/10/11 10:41:33;;;;;;;15.93;8.57;;;25.60;99.90;;;;;;4976862;28;20042;-41
2023/10/11 10:44:11;;;;;;;18.40;9.35;;;25.80;99.90;;;;;;4972676;28;20407;-41
2023/10/11 10:46:55;;;;;;;17.38;8.35;;;26.00;99.90;;;;;;4973156;28;20096;-41
2023/10/11 10:49:41;;;;;;;22.05;8.15;;;26.00;99.90;;;;;;4979204;28;20414;-40
2023/10/11 10:52:23;;;;;;;15.35;8.57;;;26.20;99.90;;;;;;4972855;28;20062;-39
2023/10/11 10:55:04;;;;;;;16.42;8.75;;;26.60;99.90;;;;;;4973018;28;20078;-38
2023/10/11 10:57:38;;;;;;;14.73;8.25;;;26.70;99.90;;;;;;4973946;28;20066;-40
2023/10/11 11:00:22;;;;;;;18.00;8.98;;;26.60;99.90;;;;;;4973363;28;20042;-41
2023/10/11 11:02:56;;;;;;;13.65;9.00;;;26.60;99.90;;;;;;4974687;28;20050;-39
2023/10/11 11:05:29;;;;;;;19.17;8.32;;;27.10;99.90;;;;;;4976696;28;20043;-41
2023/10/11 11:08:15;;;;;;;15.50;8.82;;;27.20;99.90;;;;;;4976833;28;20035;-41
2023/10/11 11:10:54;;;;;;;17.00;8.90;;;27.70;99.90;;;;;;4981072;28;20492;-42
2023/10/11 11:13:25;;;;;;;10.13;7.95;;;27.80;99.50;;;;;;4985302;28;20050;-39
2023/10/11 11:15:56;;;;;;;15.93;8.50;;;27.90;98.90;;;;;;4975435;28;20045;-39
2023/10/11 11:18:33;;;;;;;18.08;8.45;;;27.90;98.50;;;;;;4980976;28;20038;-41
2023/10/11 11:21:20;;;;;;;15.75;8.18;;;27.90;96.60;;;;;;4977931;28;20045;-42
2023/10/11 11:23:51;;;;;;;11.65;8.02;;;27.80;95.40;;;;;;4976697;28;20039;-41
2023/10/11 11:26:23;;;;;;;17.05;8.40;;;27.40;95.20;;;;;;4979064;28;20061;-41
2023/10/11 11:29:09;;;;;;;15.73;8.25;;;27.50;94.60;;;;;;4974482;28;20055;-42
2023/10/11 11:31:52;;;;;;;12.88;7.82;;;27.60;94.50;;;;;;4976989;28;20056;-41
2023/10/11 11:34:37;;;;;;;17.83;7.88;;;27.90;93.90;;;;;;4978700;28;20109;-40
2023/10/11 11:37:06;;;;;;;14.82;7.95;;;28.30;93.20;;;;;;4979398;28;20054;-37
2023/10/11 11:39:51;;;;;;;13.43;8.38;;;28.30;92.60;;;;;;4977645;28;20051;-39
2023/10/11 11:42:19;;;;;;;16.20;8.38;;;28.40;92.60;;;;;;4980342;28;20055;-38
2023/10/11 11:44:48;;;;;;;14.27;8.50;;;28.50;91.80;;;;;;4973877;28;20058;-41
2023/10/11 11:47:21;;;;;;;14.77;8.68;;;28.70;91.60;;;;;;4981263;28;20053;-40
2023/10/11 11:49:58;;;;;;;14.52;8.68;;;29.10;90.80;;;;;;4977726;28;20054;-43
2023/10/11 11:52:28;;;;;;;13.43;8.73;;;29.20;90.40;;;;;;4976384;28;20050;-41
2023/10/11 11:54:56;;;;;;;15.10;8.38;;;29.40;89.40;;;;;;4976526;28;20059;-41
2023/10/11 11:57:29;;;;;;;13.73;9.23;;;29.70;88.30;;;;;;4976935;28;20060;-42
2023/10/11 11:59:57;;;;;;;15.50;8.15;;;29.50;85.20;;;;;;4975846;28;20448;-41
2023/10/11 12:02:26;;;;;;;17.95;8.95;;;29.30;84.10;;;;;;4976353;28;20042;-41
2023/10/11 12:04:56;;;;;;;15.35;8.23;;;28.70;84.50;;;;;;4971159;28;20074;-43
2023/10/11 12:07:24;;;;;;;15.35;8.30;;;28.70;83.20;;;;;;4979858;28;20050;-42
2023/10/11 12:09:55;;;;;;;11.15;7.78;;;28.90;83.50;;;;;;4975775;28;20115;-41
2023/10/11 12:12:30;;;;;;;15.38;8.13;;;28.80;82.50;;;;;;4980716;28;20084;-41
2023/10/11 12:14:59;;;;;;;20.55;8.35;;;28.80;82.30;;;;;;4963555;28;20526;-42
2023/10/11 12:17:28;;;;;;;13.68;8.23;;;28.50;81.90;;;;;;4974233;28;20133;-42
2023/10/11 12:20:12;;;;;;;14.18;8.60;;;28.60;82.30;;;;;;4977450;28;20109;-41
2023/10/11 12:22:42;;;;;;;15.10;8.15;;;29.20;82.70;;;;;;4983974;28;20070;-40
2023/10/11 12:25:12;;;;;;;13.35;8.23;;;29.70;79.70;;;;;;4977529;28;20138;-42
2023/10/11 12:27:40;;;;;;;21.80;8.48;;;29.80;78.10;;;;;;4978089;28;20050;-40
2023/10/11 12:30:19;;;;;;;15.25;9.15;;;29.90;78.60;;;;;;4975529;28;20059;-41
2023/10/11 12:32:47;;;;;;;12.60;8.32;;;30.70;77.20;;;;;;4980762;28;20082;-42
2023/10/11 12:35:15;;;;;;;18.38;8.95;;;31.50;75.90;;;;;;4979736;28;20054;-41
2023/10/11 12:37:43;;;;;;;12.27;8.43;;;31.70;73.50;;;;;;4982012;28;20069;-41
2023/10/11 12:40:21;;;;;;;12.98;9.20;;;32.50;72.20;;;;;;4985317;28;20133;-42
2023/10/11 12:42:50;;;;;;;15.85;9.02;;;33.00;69.50;;;;;;4982937;28;20451;-42
2023/10/11 12:45:17;;;;;;;15.63;8.32;;;33.00;68.70;;;;;;4983083;28;20434;-43
2023/10/11 12:47:45;;;;;;;16.02;8.18;;;33.50;67.10;;;;;;4983546;28;20101;-43
2023/10/11 12:50:14;;;;;;;11.63;8.23;;;34.10;65.20;;;;;;4987767;28;20066;-41
2023/10/11 12:52:41;;;;;;;18.95;8.55;;;33.90;63.90;;;;;;4988638;28;20085;-42
2023/10/11 12:55:12;;;;;;;15.18;8.98;;;33.80;63.60;;;;;;4988457;28;20396;-40
2023/10/11 12:57:40;;;;;;;14.32;8.02;;;34.40;62.50;;;;;;4987619;28;20495;-39
2023/10/11 13:05:47;;;;;;;19.25;8.95;;;34.10;60.30;;;;;;4975918;28;20055;-41
2023/10/11 13:08:15;;;;;;;17.88;9.13;;;34.30;60.80;;;;;;4979251;28;20077;-41
2023/10/11 13:10:48;;;;;;;15.75;8.73;;;33.70;59.70;;;;;;4978420;28;20077;-41
2023/10/11 13:13:16;;;;;;;13.40;9.20;;;34.10;59.10;;;;;;4978207;28;20041;-42
2023/10/11 13:15:59;;;;;;;13.73;9.15;;;33.00;60.00;;;;;;4977375;28;20058;-40
2023/10/11 13:18:32;;;;;;;14.65;7.90;;;33.00;60.00;;;;;;4974926;28;20046;-41
2023/10/11 13:20:59;;;;;;;15.40;9.13;;;33.80;59.30;;;;;;4973239;28;20053;-43
2023/10/11 13:23:30;;;;;;;11.18;8.10;;;34.40;58.90;;;;;;4974886;28;20468;-41
2023/10/11 13:26:07;;;;;;;14.55;9.23;;;34.00;59.40;;;;;;4973354;28;20367;-41
2023/10/11 13:28:39;;;;;;;18.60;8.93;;;34.60;57.60;;;;;;4975353;28;20042;-40
2023/10/11 13:31:09;;;;;;;12.73;8.75;;;33.90;58.00;;;;;;4976128;28;20134;-47
2023/10/11 13:33:37;;;;;;;13.52;8.85;;;34.70;57.80;;;;;;4973132;28;20047;-40
2023/10/11 13:36:06;;;;;;;16.95;8.38;;;34.50;57.50;;;;;;4973987;28;20047;-45
2023/10/11 13:38:36;;;;;;;12.07;8.40;;;35.50;56.70;;;;;;4974634;28;20046;-42
2023/10/11 13:41:04;;;;;;;12.90;8.30;;;35.20;56.10;;;;;;4974987;28;20096;-43
2023/10/11 13:43:32;;;;;;;13.30;8.50;;;35.60;55.30;;;;;;4976094;28;20053;-43
2023/10/11 13:46:06;;;;;;;16.35;8.48;;;35.60;54.10;;;;;;4976623;28;20061;-43